sensor_id;sensor_type;location;lat;lon;timestamp;pressure;altitude;pressure_sealevel;temperature
71564;BMP180;59391;52.504;13.438;2023-02-16T00:00:21;101940.00;;;8.60
71564;BMP180;59391;52.504;13.438;2023-02-16T00:02:47;101946.00;;;8.60
71564;BMP180;59391;52.504;13.438;2023-02-16T00:05:30;101936.00;;;8.50
71564;BMP180;59391;52.504;13.438;2023-02-16T00:07:59;101931.00;;;8.50
71564;BMP180;59391;52.504;13.438;2023-02-16T00:10:31;101935.00;;;8.50
71564;BMP180;59391;52.504;13.438;2023-02-16T00:12:57;101941.00;;;8.40
71564;BMP180;59391;52.504;13.438;2023-02-16T00:15:41;101947.00;;;8.40
71564;BMP180;59391;52.504;13.438;2023-02-16T00:18:20;101960.00;;;8.30
71564;BMP180;59391;52.504;13.438;2023-02-16T00:20:48;101939.00;;;8.30
71564;BMP180;59391;52.504;13.438;2023-02-16T00:23:14;101951.00;;;8.30
71564;BMP180;59391;52.504;13.438;2023-02-16T00:25:40;101930.00;;;8.30
71564;BMP180;59391;52.504;13.438;2023-02-16T00:28:17;101943.00;;;8.30
71564;BMP180;59391;52.504;13.438;2023-02-16T00:30:44;101943.00;;;8.20
71564;BMP180;59391;52.504;13.438;2023-02-16T00:33:19;101936.00;;;8.20
71564;BMP180;59391;52.504;13.438;2023-02-16T00:35:46;101946.00;;;8.20
71564;BMP180;59391;52.504;13.438;2023-02-16T00:38:12;101954.00;;;8.20
71564;BMP180;59391;52.504;13.438;2023-02-16T00:40:39;101942.00;;;8.10
71564;BMP180;59391;52.504;13.438;2023-02-16T00:43:06;101935.00;;;8.10
71564;BMP180;59391;52.504;13.438;2023-02-16T00:45:36;101943.00;;;8.10
71564;BMP180;59391;52.504;13.438;2023-02-16T00:48:03;101954.00;;;8.10
71564;BMP180;59391;52.504;13.438;2023-02-16T00:50:32;101951.00;;;8.10
71564;BMP180;59391;52.504;13.438;2023-02-16T00:52:59;101948.00;;;8.00
71564;BMP180;59391;52.504;13.438;2023-02-16T00:55:33;101953.00;;;8.00
71564;BMP180;59391;52.504;13.438;2023-02-16T01:00:51;101935.00;;;7.90
71564;BMP180;59391;52.504;13.438;2023-02-16T01:03:23;101939.00;;;7.90
71564;BMP180;59391;52.504;13.438;2023-02-16T01:05:50;101938.00;;;7.90
71564;BMP180;59391;52.504;13.438;2023-02-16T01:08:36;101950.00;;;7.90
71564;BMP180;59391;52.504;13.438;2023-02-16T01:11:21;101941.00;;;7.80
71564;BMP180;59391;52.504;13.438;2023-02-16T01:13:49;101941.00;;;7.80
71564;BMP180;59391;52.504;13.438;2023-02-16T01:16:26;101943.00;;;7.80
71564;BMP180;59391;52.504;13.438;2023-02-16T01:18:52;101937.00;;;7.80
71564;BMP180;59391;52.504;13.438;2023-02-16T01:21:19;101930.00;;;7.80
71564;BMP180;59391;52.504;13.438;2023-02-16T01:23:46;101929.00;;;7.80
71564;BMP180;59391;52.504;13.438;2023-02-16T01:26:17;101930.00;;;7.70
71564;BMP180;59391;52.504;13.438;2023-02-16T01:28:44;101934.00;;;7.70
71564;BMP180;59391;52.504;13.438;2023-02-16T01:31:11;101925.00;;;7.70
71564;BMP180;59391;52.504;13.438;2023-02-16T01:33:37;101930.00;;;7.70
71564;BMP180;59391;52.504;13.438;2023-02-16T01:36:04;101915.00;;;7.70
71564;BMP180;59391;52.504;13.438;2023-02-16T01:38:30;101922.00;;;7.70
71564;BMP180;59391;52.504;13.438;2023-02-16T01:41:42;101911.00;;;7.70
71564;BMP180;59391;52.504;13.438;2023-02-16T01:44:11;101916.00;;;7.70
71564;BMP180;59391;52.504;13.438;2023-02-16T01:46:48;101916.00;;;7.70
71564;BMP180;59391;52.504;13.438;2023-02-16T01:49:18;101915.00;;;7.60
71564;BMP180;59391;52.504;13.438;2023-02-16T01:52:17;101916.00;;;7.60
71564;BMP180;59391;52.504;13.438;2023-02-16T01:54:55;101915.00;;;7.50
71564;BMP180;59391;52.504;13.438;2023-02-16T01:57:55;101917.00;;;7.40
71564;BMP180;59391;52.504;13.438;2023-02-16T02:03:29;101924.00;;;7.40
71564;BMP180;59391;52.504;13.438;2023-02-16T02:06:20;101919.00;;;7.20
71564;BMP180;59391;52.504;13.438;2023-02-16T02:08:57;101919.00;;;7.30
71564;BMP180;59391;52.504;13.438;2023-02-16T02:11:36;101907.00;;;7.20
71564;BMP180;59391;52.504;13.438;2023-02-16T02:14:23;101919.00;;;7.20
71564;BMP180;59391;52.504;13.438;2023-02-16T02:17:00;101911.00;;;7.20
71564;BMP180;59391;52.504;13.438;2023-02-16T02:19:27;101906.00;;;7.20
71564;BMP180;59391;52.504;13.438;2023-02-16T02:22:21;101905.00;;;7.10
71564;BMP180;59391;52.504;13.438;2023-02-16T02:29:10;101899.00;;;7.00
71564;BMP180;59391;52.504;13.438;2023-02-16T02:31:58;101904.00;;;6.90
71564;BMP180;59391;52.504;13.438;2023-02-16T02:35:01;101912.00;;;6.90
71564;BMP180;59391;52.504;13.438;2023-02-16T02:37:45;101903.00;;;6.90
71564;BMP180;59391;52.504;13.438;2023-02-16T02:40:52;101897.00;;;6.90
71564;BMP180;59391;52.504;13.438;2023-02-16T02:43:39;101904.00;;;6.90
71564;BMP180;59391;52.504;13.438;2023-02-16T02:48:42;101900.00;;;6.90
71564;BMP180;59391;52.504;13.438;2023-02-16T02:54:25;101896.00;;;6.90
71564;BMP180;59391;52.504;13.438;2023-02-16T02:57:33;101881.00;;;6.90
71564;BMP180;59391;52.504;13.438;2023-02-16T03:00:37;101881.00;;;6.90
71564;BMP180;59391;52.504;13.438;2023-02-16T03:03:27;101887.00;;;6.90
71564;BMP180;59391;52.504;13.438;2023-02-16T03:06:08;101886.00;;;6.90
71564;BMP180;59391;52.504;13.438;2023-02-16T03:08:39;101887.00;;;6.90
71564;BMP180;59391;52.504;13.438;2023-02-16T03:11:14;101880.00;;;6.90
71564;BMP180;59391;52.504;13.438;2023-02-16T03:14:36;101882.00;;;6.80
71564;BMP180;59391;52.504;13.438;2023-02-16T03:17:10;101876.00;;;6.80
71564;BMP180;59391;52.504;13.438;2023-02-16T03:19:57;101881.00;;;6.80
71564;BMP180;59391;52.504;13.438;2023-02-16T03:22:43;101870.00;;;6.80
71564;BMP180;59391;52.504;13.438;2023-02-16T03:25:33;101882.00;;;6.80
71564;BMP180;59391;52.504;13.438;2023-02-16T03:28:22;101872.00;;;6.80
71564;BMP180;59391;52.504;13.438;2023-02-16T03:31:12;101882.00;;;6.80
71564;BMP180;59391;52.504;13.438;2023-02-16T03:33:39;101882.00;;;6.80
71564;BMP180;59391;52.504;13.438;2023-02-16T03:36:07;101881.00;;;6.80
71564;BMP180;59391;52.504;13.438;2023-02-16T03:38:33;101879.00;;;6.80
71564;BMP180;59391;52.504;13.438;2023-02-16T03:40:59;101887.00;;;6.80
71564;BMP180;59391;52.504;13.438;2023-02-16T03:43:27;101879.00;;;6.80
71564;BMP180;59391;52.504;13.438;2023-02-16T03:45:53;101881.00;;;6.80
71564;BMP180;59391;52.504;13.438;2023-02-16T03:48:20;101884.00;;;6.90
71564;BMP180;59391;52.504;13.438;2023-02-16T03:50:45;101875.00;;;6.80
71564;BMP180;59391;52.504;13.438;2023-02-16T03:53:11;101875.00;;;6.90
71564;BMP180;59391;52.504;13.438;2023-02-16T03:55:47;101860.00;;;6.80
71564;BMP180;59391;52.504;13.438;2023-02-16T03:58:17;101862.00;;;6.80
71564;BMP180;59391;52.504;13.438;2023-02-16T04:00:43;101876.00;;;6.80
71564;BMP180;59391;52.504;13.438;2023-02-16T04:03:09;101865.00;;;6.80
71564;BMP180;59391;52.504;13.438;2023-02-16T04:05:36;101877.00;;;6.80
71564;BMP180;59391;52.504;13.438;2023-02-16T04:08:03;101862.00;;;6.80
71564;BMP180;59391;52.504;13.438;2023-02-16T04:10:29;101873.00;;;6.80
71564;BMP180;59391;52.504;13.438;2023-02-16T04:12:54;101880.00;;;6.80
71564;BMP180;59391;52.504;13.438;2023-02-16T04:15:24;101861.00;;;6.80
71564;BMP180;59391;52.504;13.438;2023-02-16T04:17:50;101878.00;;;6.80
71564;BMP180;59391;52.504;13.438;2023-02-16T04:20:19;101872.00;;;6.80
71564;BMP180;59391;52.504;13.438;2023-02-16T04:22:46;101884.00;;;6.80
71564;BMP180;59391;52.504;13.438;2023-02-16T04:25:12;101853.00;;;6.80
71564;BMP180;59391;52.504;13.438;2023-02-16T04:27:41;101873.00;;;6.70
71564;BMP180;59391;52.504;13.438;2023-02-16T04:30:15;101870.00;;;6.70
71564;BMP180;59391;52.504;13.438;2023-02-16T04:32:42;101865.00;;;6.70
71564;BMP180;59391;52.504;13.438;2023-02-16T04:35:07;101848.00;;;6.70
71564;BMP180;59391;52.504;13.438;2023-02-16T04:37:33;101861.00;;;6.60
71564;BMP180;59391;52.504;13.438;2023-02-16T04:39:59;101881.00;;;6.60
71564;BMP180;59391;52.504;13.438;2023-02-16T04:42:25;101879.00;;;6.60
71564;BMP180;59391;52.504;13.438;2023-02-16T04:44:50;101869.00;;;6.50
71564;BMP180;59391;52.504;13.438;2023-02-16T04:47:16;101864.00;;;6.50
71564;BMP180;59391;52.504;13.438;2023-02-16T04:49:42;101871.00;;;6.50
71564;BMP180;59391;52.504;13.438;2023-02-16T04:52:08;101871.00;;;6.50
71564;BMP180;59391;52.504;13.438;2023-02-16T04:54:33;101864.00;;;6.50
71564;BMP180;59391;52.504;13.438;2023-02-16T04:57:00;101842.00;;;6.50
71564;BMP180;59391;52.504;13.438;2023-02-16T04:59:26;101861.00;;;6.40
71564;BMP180;59391;52.504;13.438;2023-02-16T05:01:51;101862.00;;;6.40
71564;BMP180;59391;52.504;13.438;2023-02-16T05:04:20;101859.00;;;6.40
71564;BMP180;59391;52.504;13.438;2023-02-16T05:06:45;101856.00;;;6.40
71564;BMP180;59391;52.504;13.438;2023-02-16T05:09:11;101856.00;;;6.40
71564;BMP180;59391;52.504;13.438;2023-02-16T05:11:37;101864.00;;;6.30
71564;BMP180;59391;52.504;13.438;2023-02-16T05:14:27;101862.00;;;6.30
71564;BMP180;59391;52.504;13.438;2023-02-16T05:19:38;101871.00;;;6.30
71564;BMP180;59391;52.504;13.438;2023-02-16T05:22:04;101876.00;;;6.30
71564;BMP180;59391;52.504;13.438;2023-02-16T05:24:30;101885.00;;;6.30
71564;BMP180;59391;52.504;13.438;2023-02-16T05:26:55;101876.00;;;6.30
71564;BMP180;59391;52.504;13.438;2023-02-16T05:29:21;101877.00;;;6.30
71564;BMP180;59391;52.504;13.438;2023-02-16T05:31:47;101878.00;;;6.30
71564;BMP180;59391;52.504;13.438;2023-02-16T05:34:12;101874.00;;;6.20
71564;BMP180;59391;52.504;13.438;2023-02-16T05:36:38;101870.00;;;6.20
71564;BMP180;59391;52.504;13.438;2023-02-16T05:39:04;101883.00;;;6.20
71564;BMP180;59391;52.504;13.438;2023-02-16T05:41:30;101874.00;;;6.20
71564;BMP180;59391;52.504;13.438;2023-02-16T05:44:01;101856.00;;;6.20
71564;BMP180;59391;52.504;13.438;2023-02-16T05:46:29;101856.00;;;6.20
71564;BMP180;59391;52.504;13.438;2023-02-16T05:48:57;101880.00;;;6.20
71564;BMP180;59391;52.504;13.438;2023-02-16T05:51:22;101865.00;;;6.20
71564;BMP180;59391;52.504;13.438;2023-02-16T05:53:48;101870.00;;;6.20
71564;BMP180;59391;52.504;13.438;2023-02-16T05:56:16;101858.00;;;6.20
71564;BMP180;59391;52.504;13.438;2023-02-16T05:58:41;101871.00;;;6.20
71564;BMP180;59391;52.504;13.438;2023-02-16T06:01:07;101881.00;;;6.20
71564;BMP180;59391;52.504;13.438;2023-02-16T06:03:33;101874.00;;;6.20
71564;BMP180;59391;52.504;13.438;2023-02-16T06:06:01;101883.00;;;6.10
71564;BMP180;59391;52.504;13.438;2023-02-16T06:08:28;101891.00;;;6.10
71564;BMP180;59391;52.504;13.438;2023-02-16T06:10:55;101894.00;;;6.10
71564;BMP180;59391;52.504;13.438;2023-02-16T06:13:22;101896.00;;;6.10
71564;BMP180;59391;52.504;13.438;2023-02-16T06:15:52;101886.00;;;6.10
71564;BMP180;59391;52.504;13.438;2023-02-16T06:18:18;101885.00;;;6.10
71564;BMP180;59391;52.504;13.438;2023-02-16T06:20:45;101877.00;;;6.10
71564;BMP180;59391;52.504;13.438;2023-02-16T06:23:12;101879.00;;;6.10
71564;BMP180;59391;52.504;13.438;2023-02-16T06:25:41;101905.00;;;6.10
71564;BMP180;59391;52.504;13.438;2023-02-16T06:28:07;101892.00;;;6.10
71564;BMP180;59391;52.504;13.438;2023-02-16T06:30:33;101902.00;;;6.10
71564;BMP180;59391;52.504;13.438;2023-02-16T06:33:01;101887.00;;;6.10
71564;BMP180;59391;52.504;13.438;2023-02-16T06:35:27;101891.00;;;6.10
71564;BMP180;59391;52.504;13.438;2023-02-16T06:37:52;101888.00;;;6.10
71564;BMP180;59391;52.504;13.438;2023-02-16T06:40:18;101893.00;;;6.10
71564;BMP180;59391;52.504;13.438;2023-02-16T06:42:44;101902.00;;;6.10
71564;BMP180;59391;52.504;13.438;2023-02-16T06:45:10;101907.00;;;6.10
71564;BMP180;59391;52.504;13.438;2023-02-16T06:47:37;101899.00;;;6.10
71564;BMP180;59391;52.504;13.438;2023-02-16T06:50:05;101901.00;;;6.10
71564;BMP180;59391;52.504;13.438;2023-02-16T06:52:31;101908.00;;;6.10
71564;BMP180;59391;52.504;13.438;2023-02-16T06:54:57;101908.00;;;6.10
71564;BMP180;59391;52.504;13.438;2023-02-16T06:57:23;101914.00;;;6.00
71564;BMP180;59391;52.504;13.438;2023-02-16T06:59:48;101916.00;;;6.10
71564;BMP180;59391;52.504;13.438;2023-02-16T07:02:14;101909.00;;;6.20
71564;BMP180;59391;52.504;13.438;2023-02-16T07:04:39;101909.00;;;6.20
71564;BMP180;59391;52.504;13.438;2023-02-16T07:07:05;101907.00;;;6.20
71564;BMP180;59391;52.504;13.438;2023-02-16T07:09:31;101900.00;;;6.30
71564;BMP180;59391;52.504;13.438;2023-02-16T07:11:57;101898.00;;;6.30
71564;BMP180;59391;52.504;13.438;2023-02-16T07:14:22;101911.00;;;6.30
71564;BMP180;59391;52.504;13.438;2023-02-16T07:16:48;101910.00;;;6.40
71564;BMP180;59391;52.504;13.438;2023-02-16T07:19:14;101893.00;;;6.40
71564;BMP180;59391;52.504;13.438;2023-02-16T07:21:40;101901.00;;;6.50
71564;BMP180;59391;52.504;13.438;2023-02-16T07:24:06;101886.00;;;6.50
71564;BMP180;59391;52.504;13.438;2023-02-16T07:26:32;101901.00;;;6.60
71564;BMP180;59391;52.504;13.438;2023-02-16T07:28:58;101902.00;;;6.60
71564;BMP180;59391;52.504;13.438;2023-02-16T07:31:23;101894.00;;;6.60
71564;BMP180;59391;52.504;13.438;2023-02-16T07:33:52;101904.00;;;6.60
71564;BMP180;59391;52.504;13.438;2023-02-16T07:36:18;101882.00;;;6.70
71564;BMP180;59391;52.504;13.438;2023-02-16T07:38:43;101889.00;;;6.70
71564;BMP180;59391;52.504;13.438;2023-02-16T07:41:10;101894.00;;;6.70
71564;BMP180;59391;52.504;13.438;2023-02-16T07:43:37;101897.00;;;6.60
71564;BMP180;59391;52.504;13.438;2023-02-16T07:46:03;101880.00;;;6.60
71564;BMP180;59391;52.504;13.438;2023-02-16T07:48:30;101893.00;;;6.70
71564;BMP180;59391;52.504;13.438;2023-02-16T07:50:56;101897.00;;;6.80
71564;BMP180;59391;52.504;13.438;2023-02-16T07:53:21;101898.00;;;6.80
71564;BMP180;59391;52.504;13.438;2023-02-16T07:55:47;101894.00;;;6.90
71564;BMP180;59391;52.504;13.438;2023-02-16T07:58:13;101893.00;;;7.00
71564;BMP180;59391;52.504;13.438;2023-02-16T08:01:09;101888.00;;;7.10
71564;BMP180;59391;52.504;13.438;2023-02-16T08:03:36;101894.00;;;7.20
71564;BMP180;59391;52.504;13.438;2023-02-16T08:06:03;101906.00;;;7.40
71564;BMP180;59391;52.504;13.438;2023-02-16T08:08:29;101903.00;;;7.60
71564;BMP180;59391;52.504;13.438;2023-02-16T08:10:55;101904.00;;;7.90
71564;BMP180;59391;52.504;13.438;2023-02-16T08:13:20;101904.00;;;8.10
71564;BMP180;59391;52.504;13.438;2023-02-16T08:15:46;101894.00;;;8.30
71564;BMP180;59391;52.504;13.438;2023-02-16T08:18:12;101896.00;;;8.50
71564;BMP180;59391;52.504;13.438;2023-02-16T08:20:38;101904.00;;;8.80
71564;BMP180;59391;52.504;13.438;2023-02-16T08:23:03;101902.00;;;9.00
71564;BMP180;59391;52.504;13.438;2023-02-16T08:25:37;101907.00;;;9.20
71564;BMP180;59391;52.504;13.438;2023-02-16T08:28:03;101920.00;;;9.30
71564;BMP180;59391;52.504;13.438;2023-02-16T08:30:32;101910.00;;;9.30
71564;BMP180;59391;52.504;13.438;2023-02-16T08:32:59;101900.00;;;9.30
71564;BMP180;59391;52.504;13.438;2023-02-16T08:35:27;101916.00;;;9.40
71564;BMP180;59391;52.504;13.438;2023-02-16T08:37:55;101905.00;;;9.30
71564;BMP180;59391;52.504;13.438;2023-02-16T08:40:20;101901.00;;;9.20
71564;BMP180;59391;52.504;13.438;2023-02-16T08:42:49;101905.00;;;9.20
71564;BMP180;59391;52.504;13.438;2023-02-16T08:45:15;101908.00;;;9.30
71564;BMP180;59391;52.504;13.438;2023-02-16T08:47:40;101895.00;;;9.40
71564;BMP180;59391;52.504;13.438;2023-02-16T08:50:06;101900.00;;;9.40
71564;BMP180;59391;52.504;13.438;2023-02-16T08:52:32;101891.00;;;9.50
71564;BMP180;59391;52.504;13.438;2023-02-16T08:54:58;101887.00;;;9.60
71564;BMP180;59391;52.504;13.438;2023-02-16T08:57:24;101885.00;;;9.70
71564;BMP180;59391;52.504;13.438;2023-02-16T08:59:49;101889.00;;;9.80
71564;BMP180;59391;52.504;13.438;2023-02-16T09:02:35;101902.00;;;9.80
71564;BMP180;59391;52.504;13.438;2023-02-16T09:05:00;101879.00;;;9.90
71564;BMP180;59391;52.504;13.438;2023-02-16T09:07:26;101892.00;;;10.00
71564;BMP180;59391;52.504;13.438;2023-02-16T09:09:52;101875.00;;;10.10
71564;BMP180;59391;52.504;13.438;2023-02-16T09:12:17;101892.00;;;10.20
71564;BMP180;59391;52.504;13.438;2023-02-16T09:14:43;101884.00;;;10.40
71564;BMP180;59391;52.504;13.438;2023-02-16T09:17:08;101875.00;;;10.60
71564;BMP180;59391;52.504;13.438;2023-02-16T09:19:34;101871.00;;;10.70
71564;BMP180;59391;52.504;13.438;2023-02-16T09:22:00;101865.00;;;10.80
71564;BMP180;59391;52.504;13.438;2023-02-16T09:24:25;101884.00;;;11.10
71564;BMP180;59391;52.504;13.438;2023-02-16T09:26:51;101881.00;;;11.40
71564;BMP180;59391;52.504;13.438;2023-02-16T09:29:17;101884.00;;;11.80
71564;BMP180;59391;52.504;13.438;2023-02-16T09:31:43;101879.00;;;12.20
71564;BMP180;59391;52.504;13.438;2023-02-16T09:34:20;101878.00;;;12.70
71564;BMP180;59391;52.504;13.438;2023-02-16T09:36:46;101878.00;;;13.10
71564;BMP180;59391;52.504;13.438;2023-02-16T09:39:13;101883.00;;;13.60
71564;BMP180;59391;52.504;13.438;2023-02-16T09:42:04;101869.00;;;14.00
71564;BMP180;59391;52.504;13.438;2023-02-16T09:45:04;101883.00;;;14.40
71564;BMP180;59391;52.504;13.438;2023-02-16T09:47:37;101886.00;;;14.70
71564;BMP180;59391;52.504;13.438;2023-02-16T09:50:19;101885.00;;;15.00
71564;BMP180;59391;52.504;13.438;2023-02-16T09:52:58;101873.00;;;15.30
71564;BMP180;59391;52.504;13.438;2023-02-16T09:55:40;101864.00;;;15.60
71564;BMP180;59391;52.504;13.438;2023-02-16T09:58:19;101865.00;;;15.80
71564;BMP180;59391;52.504;13.438;2023-02-16T10:04:10;101876.00;;;16.10
71564;BMP180;59391;52.504;13.438;2023-02-16T10:09:52;101869.00;;;16.70
71564;BMP180;59391;52.504;13.438;2023-02-16T10:12:25;101864.00;;;17.10
71564;BMP180;59391;52.504;13.438;2023-02-16T10:14:59;101881.00;;;17.40
71564;BMP180;59391;52.504;13.438;2023-02-16T10:17:44;101871.00;;;17.50
71564;BMP180;59391;52.504;13.438;2023-02-16T10:20:34;101871.00;;;17.70
71564;BMP180;59391;52.504;13.438;2023-02-16T10:23:33;101871.00;;;17.90
71564;BMP180;59391;52.504;13.438;2023-02-16T10:26:21;101870.00;;;18.10
71564;BMP180;59391;52.504;13.438;2023-02-16T10:28:56;101870.00;;;18.30
71564;BMP180;59391;52.504;13.438;2023-02-16T10:31:42;101881.00;;;18.20
71564;BMP180;59391;52.504;13.438;2023-02-16T10:43:38;101861.00;;;18.40
71564;BMP180;59391;52.504;13.438;2023-02-16T10:46:09;101852.00;;;18.30
71564;BMP180;59391;52.504;13.438;2023-02-16T10:48:36;101860.00;;;18.50
71564;BMP180;59391;52.504;13.438;2023-02-16T10:51:07;101851.00;;;18.70
71564;BMP180;59391;52.504;13.438;2023-02-16T10:53:58;101842.00;;;19.00
71564;BMP180;59391;52.504;13.438;2023-02-16T10:56:53;101845.00;;;19.00
71564;BMP180;59391;52.504;13.438;2023-02-16T10:59:40;101849.00;;;19.00
71564;BMP180;59391;52.504;13.438;2023-02-16T11:02:41;101853.00;;;18.80
71564;BMP180;59391;52.504;13.438;2023-02-16T11:05:29;101844.00;;;18.90
71564;BMP180;59391;52.504;13.438;2023-02-16T11:07:58;101843.00;;;19.10
71564;BMP180;59391;52.504;13.438;2023-02-16T11:10:47;101840.00;;;19.20
71564;BMP180;59391;52.504;13.438;2023-02-16T11:13:25;101845.00;;;19.20
71564;BMP180;59391;52.504;13.438;2023-02-16T11:15:55;101840.00;;;19.20
71564;BMP180;59391;52.504;13.438;2023-02-16T11:18:30;101841.00;;;19.40
71564;BMP180;59391;52.504;13.438;2023-02-16T11:20:58;101837.00;;;19.60
71564;BMP180;59391;52.504;13.438;2023-02-16T11:23:37;101840.00;;;19.60
71564;BMP180;59391;52.504;13.438;2023-02-16T11:28:43;101837.00;;;19.10
71564;BMP180;59391;52.504;13.438;2023-02-16T11:31:17;101831.00;;;18.80
71564;BMP180;59391;52.504;13.438;2023-02-16T11:34:12;101840.00;;;18.30
71564;BMP180;59391;52.504;13.438;2023-02-16T11:36:45;101831.00;;;18.20
71564;BMP180;59391;52.504;13.438;2023-02-16T11:39:23;101820.00;;;18.30
71564;BMP180;59391;52.504;13.438;2023-02-16T11:41:54;101819.00;;;18.60
71564;BMP180;59391;52.504;13.438;2023-02-16T11:44:42;101811.00;;;19.00
71564;BMP180;59391;52.504;13.438;2023-02-16T11:47:25;101826.00;;;19.20
71564;BMP180;59391;52.504;13.438;2023-02-16T11:50:22;101814.00;;;19.40
71564;BMP180;59391;52.504;13.438;2023-02-16T11:53:14;101819.00;;;19.60
71564;BMP180;59391;52.504;13.438;2023-02-16T11:55:46;101817.00;;;19.40
71564;BMP180;59391;52.504;13.438;2023-02-16T11:58:22;101811.00;;;19.40
71564;BMP180;59391;52.504;13.438;2023-02-16T12:04:11;101802.00;;;20.20
71564;BMP180;59391;52.504;13.438;2023-02-16T12:07:19;101807.00;;;20.80
71564;BMP180;59391;52.504;13.438;2023-02-16T12:10:11;101801.00;;;21.40
71564;BMP180;59391;52.504;13.438;2023-02-16T12:13:09;101808.00;;;22.20
71564;BMP180;59391;52.504;13.438;2023-02-16T12:16:01;101806.00;;;22.50
71564;BMP180;59391;52.504;13.438;2023-02-16T12:18:38;101802.00;;;22.50
71564;BMP180;59391;52.504;13.438;2023-02-16T12:21:36;101798.00;;;22.50
71564;BMP180;59391;52.504;13.438;2023-02-16T12:24:39;101795.00;;;22.70
71564;BMP180;59391;52.504;13.438;2023-02-16T12:27:54;101799.00;;;22.80
71564;BMP180;59391;52.504;13.438;2023-02-16T12:30:49;101796.00;;;23.00
71564;BMP180;59391;52.504;13.438;2023-02-16T12:33:54;101797.00;;;23.20
71564;BMP180;59391;52.504;13.438;2023-02-16T12:40:04;101777.00;;;23.60
71564;BMP180;59391;52.504;13.438;2023-02-16T12:42:49;101790.00;;;23.70
71564;BMP180;59391;52.504;13.438;2023-02-16T12:45:23;101787.00;;;23.40
71564;BMP180;59391;52.504;13.438;2023-02-16T12:48:29;101782.00;;;23.20
71564;BMP180;59391;52.504;13.438;2023-02-16T12:51:00;101781.00;;;23.40
71564;BMP180;59391;52.504;13.438;2023-02-16T12:53:45;101786.00;;;23.40
71564;BMP180;59391;52.504;13.438;2023-02-16T12:56:20;101767.00;;;23.20
71564;BMP180;59391;52.504;13.438;2023-02-16T12:58:52;101782.00;;;22.90
71564;BMP180;59391;52.504;13.438;2023-02-16T13:01:27;101776.00;;;22.40
71564;BMP180;59391;52.504;13.438;2023-02-16T13:04:18;101776.00;;;22.00
71564;BMP180;59391;52.504;13.438;2023-02-16T13:07:09;101768.00;;;21.60
71564;BMP180;59391;52.504;13.438;2023-02-16T13:09:56;101772.00;;;21.40
71564;BMP180;59391;52.504;13.438;2023-02-16T13:12:49;101766.00;;;21.30
71564;BMP180;59391;52.504;13.438;2023-02-16T13:15:43;101762.00;;;21.50
71564;BMP180;59391;52.504;13.438;2023-02-16T13:18:53;101757.00;;;21.90
71564;BMP180;59391;52.504;13.438;2023-02-16T13:21:59;101771.00;;;21.80
71564;BMP180;59391;52.504;13.438;2023-02-16T13:24:56;101755.00;;;21.60
71564;BMP180;59391;52.504;13.438;2023-02-16T13:28:19;101766.00;;;21.10
71564;BMP180;59391;52.504;13.438;2023-02-16T13:39:35;101762.00;;;21.50
71564;BMP180;59391;52.504;13.438;2023-02-16T13:42:44;101744.00;;;21.80
71564;BMP180;59391;52.504;13.438;2023-02-16T13:45:23;101747.00;;;21.90
71564;BMP180;59391;52.504;13.438;2023-02-16T13:47:52;101753.00;;;22.10
71564;BMP180;59391;52.504;13.438;2023-02-16T13:52:50;101759.00;;;22.40
71564;BMP180;59391;52.504;13.438;2023-02-16T13:55:36;101761.00;;;22.70
71564;BMP180;59391;52.504;13.438;2023-02-16T13:58:25;101757.00;;;22.90
71564;BMP180;59391;52.504;13.438;2023-02-16T14:00:51;101764.00;;;23.20
71564;BMP180;59391;52.504;13.438;2023-02-16T14:05:49;101757.00;;;22.80
71564;BMP180;59391;52.504;13.438;2023-02-16T14:08:27;101762.00;;;22.20
71564;BMP180;59391;52.504;13.438;2023-02-16T14:18:57;101748.00;;;20.30
71564;BMP180;59391;52.504;13.438;2023-02-16T14:21:40;101748.00;;;20.00
71564;BMP180;59391;52.504;13.438;2023-02-16T14:27:06;101738.00;;;19.30
71564;BMP180;59391;52.504;13.438;2023-02-16T14:29:59;101746.00;;;19.00
71564;BMP180;59391;52.504;13.438;2023-02-16T14:32:33;101746.00;;;18.90
71564;BMP180;59391;52.504;13.438;2023-02-16T14:35:07;101750.00;;;18.70
71564;BMP180;59391;52.504;13.438;2023-02-16T14:37:45;101748.00;;;18.50
71564;BMP180;59391;52.504;13.438;2023-02-16T14:40:21;101747.00;;;18.40
71564;BMP180;59391;52.504;13.438;2023-02-16T14:42:55;101745.00;;;18.20
71564;BMP180;59391;52.504;13.438;2023-02-16T14:52:08;101736.00;;;17.50
71564;BMP180;59391;52.504;13.438;2023-02-16T14:55:36;101743.00;;;17.40
71564;BMP180;59391;52.504;13.438;2023-02-16T14:58:21;101731.00;;;17.30
71564;BMP180;59391;52.504;13.438;2023-02-16T15:00:56;101749.00;;;17.20
71564;BMP180;59391;52.504;13.438;2023-02-16T15:03:43;101735.00;;;17.20
71564;BMP180;59391;52.504;13.438;2023-02-16T15:08:58;101743.00;;;17.10
71564;BMP180;59391;52.504;13.438;2023-02-16T15:11:37;101741.00;;;17.00
71564;BMP180;59391;52.504;13.438;2023-02-16T15:14:26;101748.00;;;16.90
71564;BMP180;59391;52.504;13.438;2023-02-16T15:16:54;101749.00;;;16.80
71564;BMP180;59391;52.504;13.438;2023-02-16T15:19:28;101746.00;;;16.80
71564;BMP180;59391;52.504;13.438;2023-02-16T15:22:20;101744.00;;;16.70
71564;BMP180;59391;52.504;13.438;2023-02-16T15:25:02;101745.00;;;16.70
71564;BMP180;59391;52.504;13.438;2023-02-16T15:27:29;101737.00;;;16.70
71564;BMP180;59391;52.504;13.438;2023-02-16T15:30:21;101743.00;;;16.70
71564;BMP180;59391;52.504;13.438;2023-02-16T15:32:57;101738.00;;;16.70
71564;BMP180;59391;52.504;13.438;2023-02-16T15:35:41;101741.00;;;16.60
71564;BMP180;59391;52.504;13.438;2023-02-16T15:38:23;101719.00;;;16.60
71564;BMP180;59391;52.504;13.438;2023-02-16T15:40:53;101727.00;;;16.60
71564;BMP180;59391;52.504;13.438;2023-02-16T15:43:45;101721.00;;;16.40
71564;BMP180;59391;52.504;13.438;2023-02-16T15:46:30;101732.00;;;16.40
71564;BMP180;59391;52.504;13.438;2023-02-16T15:48:57;101729.00;;;16.40
71564;BMP180;59391;52.504;13.438;2023-02-16T15:51:30;101725.00;;;16.30